Geosand — 9HA4292 — position and weather

sailwx.info

Track history (hours):
 
Tides and Currents Weather Stations Pressure Air Temp Water Temp Dewpoint Dewpoint Depression Visibility Wind Speed Wind Dir Waves Ship Positions

Geosand

Last reported at 2018-Jun-24 13:00 UTC. Time now 2018-Jun-24 12:57 UTC.
Position N 37°25' E 025°20'.

Length 42 m; draft 2.5 m.

Type: Pleasure craft. MMSI: 249572000.

Date/timePositionNaut miles runAvg speedWind from/ knotsBaromVisibWave heightAir tempDewpointWater temp
2018-Jun-24 13:00N 37°25' E 025°20'0 0.0
2018-Jun-24 12:30N 37°25' E 025°20'0 0.0
2018-Jun-24 12:01N 37°25' E 025°20'0 0.2
2018-Jun-24 11:30N 37°25' E 025°20'0 0.1
2018-Jun-24 11:00N 37°25' E 025°20'0 0.0
2018-Jun-24 10:31N 37°25' E 025°20'0 0.0
2018-Jun-24 10:01N 37°25' E 025°20'0 0.0
2018-Jun-24 09:31N 37°25' E 025°20'0 0.0
2018-Jun-24 09:01N 37°25' E 025°20'0 0.0
2018-Jun-24 08:30N 37°25' E 025°20'0 0.0
2018-Jun-24 08:00N 37°25' E 025°20'0 0.1
2018-Jun-24 07:30N 37°25' E 025°20'0 0.0
2018-Jun-24 07:01N 37°25' E 025°20'0 0.0
2018-Jun-24 06:31N 37°25' E 025°20'0 0.2
2018-Jun-24 06:00N 37°24' E 025°20'0 0.0
2018-Jun-24 05:31N 37°24' E 025°20'0 0.0
2018-Jun-24 05:00N 37°24' E 025°20'0 0.0
2018-Jun-24 04:30N 37°24' E 025°20'0 0.0
2018-Jun-24 04:00N 37°24' E 025°20'0 0.0
2018-Jun-24 03:30N 37°24' E 025°20'0 0.0
2018-Jun-24 03:00N 37°24' E 025°20'0 0.0
2018-Jun-24 02:30N 37°24' E 025°20'0 0.0
2018-Jun-24 02:01N 37°24' E 025°20'0 0.1
2018-Jun-24 01:31N 37°24' E 025°20'0 0.0
2018-Jun-24 01:01N 37°24' E 025°20'0 0.0
2018-Jun-24 00:30N 37°24' E 025°20'0 0.0
2018-Jun-24 00:01N 37°24' E 025°20'0 0.0
2018-Jun-23 23:31N 37°24' E 025°20'0 0.0
2018-Jun-23 23:00N 37°24' E 025°20'0 0.0
2018-Jun-23 22:30N 37°24' E 025°20'0 0.0
2018-Jun-23 22:01N 37°24' E 025°20'0 0.0
2018-Jun-23 21:31N 37°24' E 025°20'0 0.0
2018-Jun-23 21:00N 37°24' E 025°20'0 0.0
2018-Jun-23 20:30N 37°24' E 025°20'0 0.0
2018-Jun-23 20:00N 37°24' E 025°20'0 0.1
2018-Jun-23 19:30N 37°24' E 025°20'0 0.0
2018-Jun-23 19:01N 37°24' E 025°20'0 0.0
2018-Jun-23 18:30N 37°24' E 025°20'0 0.0
2018-Jun-23 18:01N 37°24' E 025°20'0 0.0
2018-Jun-23 17:30N 37°24' E 025°20'0 0.0
2018-Jun-23 17:00N 37°24' E 025°20'0 0.0
2018-Jun-23 16:30N 37°24' E 025°20'0 0.0
2018-Jun-23 16:01N 37°24' E 025°20'0 0.0
2018-Jun-23 15:30N 37°24' E 025°20'0 0.0
2018-Jun-23 15:00N 37°24' E 025°20'0 0.0
2018-Jun-23 14:31N 37°24' E 025°20'0 0.0
2018-Jun-23 14:01N 37°24' E 025°20'0 0.0
2018-Jun-23 13:30N 37°24' E 025°20'0 0.0
2018-Jun-23 13:00N 37°24' E 025°20'0 0.0
2018-Jun-23 12:31N 37°24' E 025°20'0 0.0
2018-Jun-23 12:00N 37°24' E 025°20'0 0.1
2018-Jun-23 11:30N 37°25' E 025°20'0 0.0
2018-Jun-23 11:00N 37°25' E 025°20'0 0.1
2018-Jun-23 10:30N 37°25' E 025°20'0 0.0
2018-Jun-23 10:00N 37°25' E 025°20'0 0.0
2018-Jun-23 09:30N 37°25' E 025°20'0 0.0
2018-Jun-23 09:00N 37°25' E 025°20'0 0.0
2018-Jun-23 08:31N 37°25' E 025°20'0 0.0
2018-Jun-23 08:00N 37°25' E 025°20'0 0.0
2018-Jun-23 07:30N 37°25' E 025°20'2 3.4
2018-Jun-23 07:01N 37°24' E 025°18'3 6.5
2018-Jun-23 06:30N 37°27' E 025°20'0 0.1
2018-Jun-23 06:00N 37°27' E 025°20'0 0.0
2018-Jun-23 05:31N 37°27' E 025°20'0 0.0
2018-Jun-23 01:47N 37°27' E 025°20'0 0.0
2018-Jun-22 21:30N 37°27' E 025°20'0 0.0
2018-Jun-22 20:58N 37°27' E 025°20'0 0.0
2018-Jun-22 20:31N 37°27' E 025°20'0 0.0
2018-Jun-22 20:00N 37°27' E 025°20'0 0.0
2018-Jun-22 19:30N 37°27' E 025°20'0 0.0
2018-Jun-22 18:54N 37°27' E 025°20'0 0.0
2018-Jun-22 18:27N 37°27' E 025°20'0 0.0
2018-Jun-22 17:56N 37°27' E 025°20'0 0.0
2018-Jun-22 16:57N 37°27' E 025°20'0 0.0
2018-Jun-22 16:30N 37°27' E 025°20'0 0.0
2018-Jun-22 15:59N 37°27' E 025°20'0 1.0
2018-Jun-22 15:30N 37°27' E 025°19'0 0.0
2018-Jun-22 15:00N 37°27' E 025°19'4 6.8
2018-Jun-22 14:24N 37°30' E 025°22'2 5.4
2018-Jun-22 13:59N 37°28' E 025°23'0 0.0
2018-Jun-22 13:29N 37°28' E 025°23'0 0.0
2018-Jun-22 12:59N 37°28' E 025°23'0 0.0
2018-Jun-22 12:29N 37°28' E 025°23'0 0.0
2018-Jun-22 12:00N 37°28' E 025°23'0 0.0
2018-Jun-22 11:28N 37°28' E 025°23'0 0.0
2018-Jun-22 10:56N 37°28' E 025°23'0 0.0
2018-Jun-22 10:29N 37°28' E 025°23'0 0.0
2018-Jun-22 09:03N 37°28' E 025°23'0 0.1
2018-Jun-22 08:57N 37°28' E 025°23'0 0.0
2018-Jun-22 08:30N 37°28' E 025°23'0 0.0
2018-Jun-22 05:57N 37°28' E 025°23'3 7.0
2018-Jun-22 05:29N 37°30' E 025°19'3 6.7
2018-Jun-22 05:00N 37°27' E 025°20'0 0.0
2018-Jun-22 04:30N 37°27' E 025°20'0 0.0
2018-Jun-22 03:59N 37°27' E 025°20'0 0.0
2018-Jun-22 03:30N 37°27' E 025°20'0 0.0
2018-Jun-22 03:00N 37°27' E 025°20'0 0.0
2018-Jun-22 02:30N 37°27' E 025°20'0 0.0
2018-Jun-22 02:00N 37°27' E 025°20'0 0.0
2018-Jun-22 01:30N 37°27' E 025°20'0 0.0
2018-Jun-22 01:00N 37°27' E 025°20'0 0.0
2018-Jun-22 00:30N 37°27' E 025°20'0 0.0
2018-Jun-22 00:00N 37°27' E 025°20'0 0.0
2018-Jun-21 23:30N 37°27' E 025°20'0 0.0
2018-Jun-21 23:00N 37°27' E 025°20'0 0.0
2018-Jun-21 22:30N 37°27' E 025°20'0 0.0
2018-Jun-21 22:00N 37°27' E 025°20'0 0.0
2018-Jun-21 21:29N 37°27' E 025°20'0 0.0
2018-Jun-21 21:00N 37°27' E 025°20'0 0.0
2018-Jun-21 20:30N 37°27' E 025°20'0 0.0
2018-Jun-21 20:00N 37°27' E 025°20'0 0.0
2018-Jun-21 19:30N 37°27' E 025°20'0 0.0
2018-Jun-21 19:00N 37°27' E 025°20'0 0.0
2018-Jun-21 18:29N 37°27' E 025°20'0 0.0
2018-Jun-21 17:59N 37°27' E 025°20'0 0.0
2018-Jun-21 17:30N 37°27' E 025°20'0 0.0
2018-Jun-21 16:57N 37°27' E 025°20'1 2.6
2018-Jun-21 16:31N 37°27' E 025°18'3 6.0
2018-Jun-21 16:00N 37°25' E 025°20'0 0.0
2018-Jun-21 15:30N 37°25' E 025°20'0 0.0
2018-Jun-21 15:00N 37°25' E 025°20'0 0.0
2018-Jun-21 14:30N 37°25' E 025°20'0 0.0
2018-Jun-21 14:00N 37°25' E 025°20'0 0.0
2018-Jun-21 13:30N 37°25' E 025°20'0 0.0
2018-Jun-21 13:00N 37°25' E 025°20'0 0.0
2018-Jun-21 12:30N 37°25' E 025°20'0 0.0
2018-Jun-21 12:00N 37°25' E 025°20'0 0.1
2018-Jun-21 11:30N 37°25' E 025°20'0 0.0
2018-Jun-21 11:00N 37°25' E 025°20'0 0.0
2018-Jun-21 10:30N 37°25' E 025°20'0 0.0
2018-Jun-21 10:00N 37°25' E 025°20'0 0.0
2018-Jun-21 09:29N 37°25' E 025°20'0 0.1
2018-Jun-21 09:00N 37°25' E 025°20'0 0.0
2018-Jun-21 08:30N 37°25' E 025°20'0 0.0
2018-Jun-21 08:00N 37°25' E 025°20'0 0.0
2018-Jun-21 07:30N 37°25' E 025°20'0 0.0
2018-Jun-21 06:59N 37°25' E 025°20'0 0.0
2018-Jun-21 06:30N 37°25' E 025°20'0 0.0
2018-Jun-21 06:00N 37°25' E 025°20'0 0.0
2018-Jun-21 05:30N 37°25' E 025°20'0 0.0
2018-Jun-21 05:00N 37°25' E 025°20'0 0.0
2018-Jun-21 04:30N 37°25' E 025°20'0 0.0
2018-Jun-21 04:00N 37°25' E 025°20'0 0.0
2018-Jun-21 03:30N 37°25' E 025°20'0 0.0
2018-Jun-21 03:00N 37°25' E 025°20'0 0.0
2018-Jun-21 02:30N 37°25' E 025°20'0 0.0
2018-Jun-21 02:00N 37°25' E 025°20'0 0.0
2018-Jun-21 01:30N 37°25' E 025°20'0 0.0
2018-Jun-21 01:00N 37°25' E 025°20'0 0.0
2018-Jun-21 00:30N 37°25' E 025°20'0 0.0
2018-Jun-21 00:00N 37°25' E 025°20'0 0.0
2018-Jun-20 23:29N 37°25' E 025°20'0 0.0
2018-Jun-20 23:00N 37°25' E 025°20'0 0.0
2018-Jun-20 22:30N 37°25' E 025°20'0 0.0
2018-Jun-20 22:00N 37°25' E 025°20'0 0.0
2018-Jun-20 21:30N 37°25' E 025°20'0 0.0
2018-Jun-20 21:00N 37°25' E 025°20'0 0.0
2018-Jun-20 20:30N 37°25' E 025°20'0 0.0
2018-Jun-20 20:00N 37°25' E 025°20'0 0.0
2018-Jun-20 19:30N 37°25' E 025°20'0 0.0
2018-Jun-20 19:00N 37°25' E 025°20'0 0.0
2018-Jun-20 18:30N 37°25' E 025°20'0 0.0
2018-Jun-20 18:01N 37°25' E 025°20'0 0.0
2018-Jun-20 17:30N 37°25' E 025°20'0 0.0
2018-Jun-20 17:00N 37°25' E 025°20'0 0.0
2018-Jun-20 16:30N 37°25' E 025°20'0 0.0
2018-Jun-20 16:00N 37°25' E 025°20'0 0.0
2018-Jun-20 15:30N 37°25' E 025°20'0 0.1
2018-Jun-20 15:00N 37°25' E 025°20'0 0.0
2018-Jun-20 14:30N 37°25' E 025°20'0 0.0
2018-Jun-20 14:00N 37°25' E 025°20'0 0.0
2018-Jun-20 13:30N 37°25' E 025°20'0 0.0
2018-Jun-20 13:00N 37°25' E 025°20'0 0.0
2018-Jun-20 12:30N 37°25' E 025°20'0 0.0
2018-Jun-20 12:00N 37°25' E 025°20'0 0.0
2018-Jun-20 11:30N 37°25' E 025°20'0 0.0
2018-Jun-20 11:00N 37°25' E 025°20'0 0.0
2018-Jun-20 10:30N 37°25' E 025°20'0 0.0
2018-Jun-20 10:00N 37°25' E 025°20'0 0.0
2018-Jun-20 09:30N 37°25' E 025°20'0 0.0
2018-Jun-20 09:01N 37°25' E 025°20'0 0.0
2018-Jun-20 08:30N 37°25' E 025°20'0 0.0
2018-Jun-20 08:00N 37°25' E 025°20'0 0.0
2018-Jun-20 07:30N 37°25' E 025°20'0 0.0
2018-Jun-20 07:00N 37°25' E 025°20'0 0.0
2018-Jun-20 06:30N 37°25' E 025°20'0 0.0
2018-Jun-20 06:00N 37°25' E 025°20'0 0.0
2018-Jun-20 05:30N 37°25' E 025°20'0 0.0
2018-Jun-20 05:00N 37°25' E 025°20'0 0.1
2018-Jun-20 04:30N 37°25' E 025°20'612.3
2018-Jun-20 04:00N 37°22' E 025°14'1115.0
2018-Jun-20 03:17N 37°24' E 025°00'3 0.3
2018-Jun-19 17:43N 37°26' E 024°57'314.0
2018-Jun-19 17:30N 37°23' E 024°58'5 8.9
2018-Jun-19 17:00N 37°24' E 024°53'0 0.1
2018-Jun-19 16:31N 37°24' E 024°53'0 0.0
2018-Jun-19 16:00N 37°24' E 024°53'0 0.0
2018-Jun-19 15:30N 37°24' E 024°53'0 0.0
2018-Jun-19 15:00N 37°24' E 024°53'4 8.5
2018-Jun-19 14:30N 37°23' E 024°48'5211.8
2018-Jun-19 10:03N 37°43' E 023°47'115.7
2018-Jun-19 09:59N 37°44' E 023°46'715.5
2018-Jun-19 09:30N 37°51' E 023°43'1 2.7
2018-Jun-19 08:59N 37°53' E 023°43'0 0.0
2018-Jun-19 08:29N 37°53' E 023°43'0 0.0
2018-Jun-19 07:59N 37°53' E 023°43'0 0.0
2018-Jun-19 07:29N 37°53' E 023°43'0 0.0
2018-Jun-19 06:59N 37°53' E 023°43'0 0.0
2018-Jun-19 06:26N 37°53' E 023°43'0 0.0
2018-Jun-19 05:59N 37°53' E 023°43'0 0.0
2018-Jun-19 05:29N 37°53' E 023°43'0 0.0
2018-Jun-19 04:59N 37°53' E 023°43'0 0.0
2018-Jun-19 04:29N 37°53' E 023°43'0 0.0
2018-Jun-19 03:59N 37°53' E 023°43'0 0.0
2018-Jun-19 03:29N 37°53' E 023°43'0 0.0
2018-Jun-19 02:59N 37°53' E 023°43'0 0.0
2018-Jun-19 02:29N 37°53' E 023°43'0 0.0
2018-Jun-19 01:59N 37°53' E 023°43'0 0.0
2018-Jun-19 01:29N 37°53' E 023°43'0 0.0
2018-Jun-19 00:59N 37°53' E 023°43'0 0.0
2018-Jun-19 00:29N 37°53' E 023°43'0 0.0
2018-Jun-18 23:59N 37°53' E 023°43'0 0.0
2018-Jun-18 23:29N 37°53' E 023°43'0 0.0
2018-Jun-18 22:59N 37°53' E 023°43'0 0.0
2018-Jun-18 22:29N 37°53' E 023°43'0 0.0
2018-Jun-18 21:59N 37°53' E 023°43'0 0.0
2018-Jun-18 21:29N 37°53' E 023°43'0 0.0
2018-Jun-18 20:59N 37°53' E 023°43'0 0.0
2018-Jun-18 20:29N 37°53' E 023°43'0 0.0
2018-Jun-18 19:59N 37°53' E 023°43'0 0.0
2018-Jun-18 19:29N 37°53' E 023°43'0 0.0
2018-Jun-18 18:59N 37°53' E 023°43'0 0.0
2018-Jun-18 18:29N 37°53' E 023°43'0 0.0
2018-Jun-18 17:59N 37°53' E 023°43'0 0.0
2018-Jun-18 17:29N 37°53' E 023°43'0 0.0
2018-Jun-18 16:59N 37°53' E 023°43'0 0.0
2018-Jun-18 16:29N 37°53' E 023°43'0 0.0
2018-Jun-18 15:59N 37°53' E 023°43'0 0.0
2018-Jun-18 15:29N 37°53' E 023°43'0 0.0
2018-Jun-18 14:59N 37°53' E 023°43'0 0.0
2018-Jun-18 14:29N 37°53' E 023°43'0 0.0
2018-Jun-18 13:59N 37°53' E 023°43'0 0.0
2018-Jun-18 13:29N 37°53' E 023°43'0 0.0
2018-Jun-18 12:59N 37°53' E 023°43'0 0.0
2018-Jun-18 12:29N 37°53' E 023°43'0 0.0
2018-Jun-18 11:59N 37°53' E 023°43'0 0.0
2018-Jun-18 11:29N 37°53' E 023°43'0 0.0
2018-Jun-18 10:59N 37°53' E 023°43'0 0.0
2018-Jun-18 10:29N 37°53' E 023°43'0 0.0
2018-Jun-18 09:59N 37°53' E 023°43'0 0.0
2018-Jun-18 09:29N 37°53' E 023°43'0 0.0
2018-Jun-18 08:59N 37°53' E 023°43'0 0.0
2018-Jun-18 08:29N 37°53' E 023°43'0 0.0
2018-Jun-18 07:56N 37°53' E 023°43'0 0.0
2018-Jun-18 07:29N 37°53' E 023°43'0 0.0
2018-Jun-18 06:59N 37°53' E 023°43'0 0.0
2018-Jun-18 06:29N 37°53' E 023°43'0 0.0
2018-Jun-18 05:59N 37°53' E 023°43'0 0.0
2018-Jun-18 05:29N 37°53' E 023°43'0 0.0
2018-Jun-18 04:59N 37°53' E 023°43'0 0.0
2018-Jun-18 04:29N 37°53' E 023°43'0 0.0
2018-Jun-18 03:59N 37°53' E 023°43'0 0.0
2018-Jun-18 03:29N 37°53' E 023°43'0 0.0
2018-Jun-18 02:59N 37°53' E 023°43'0 0.0
2018-Jun-18 02:29N 37°53' E 023°43'0 0.0
2018-Jun-18 01:59N 37°53' E 023°43'0 0.0
2018-Jun-18 01:29N 37°53' E 023°43'0 0.0
2018-Jun-18 00:59N 37°53' E 023°43'0 0.0
2018-Jun-18 00:29N 37°53' E 023°43'0 0.0
2018-Jun-17 23:59N 37°53' E 023°43'0 0.0
2018-Jun-17 23:29N 37°53' E 023°43'0 0.0
2018-Jun-17 22:59N 37°53' E 023°43'0 0.0
2018-Jun-17 22:29N 37°53' E 023°43'0 0.0
2018-Jun-17 21:59N 37°53' E 023°43'0 0.0
2018-Jun-17 21:29N 37°53' E 023°43'0 0.0
2018-Jun-17 20:59N 37°53' E 023°43'0 0.0
2018-Jun-17 20:29N 37°53' E 023°43'0 0.0
2018-Jun-17 19:59N 37°53' E 023°43'0 0.0
2018-Jun-17 19:29N 37°53' E 023°43'0 0.0
2018-Jun-17 18:59N 37°53' E 023°43'0 0.0
2018-Jun-17 18:29N 37°53' E 023°43'0 0.0
2018-Jun-17 17:59N 37°53' E 023°43'0 0.0
2018-Jun-17 17:29N 37°53' E 023°43'0 0.0
2018-Jun-17 16:59N 37°53' E 023°43'0 0.0
2018-Jun-17 16:29N 37°53' E 023°43'0 0.0
2018-Jun-17 15:59N 37°53' E 023°43'0 0.0
2018-Jun-17 15:29N 37°53' E 023°43'0 0.0
2018-Jun-17 14:59N 37°53' E 023°43'0 0.0
2018-Jun-17 14:29N 37°53' E 023°43'0 0.0
2018-Jun-17 13:59N 37°53' E 023°43'0 0.0
2018-Jun-17 13:29N 37°53' E 023°43'0 0.0
2018-Jun-17 12:59N 37°53' E 023°43'0 0.0
2018-Jun-17 12:29N 37°53' E 023°43'0 0.0
2018-Jun-17 11:59N 37°53' E 023°43'0 0.0
2018-Jun-17 11:29N 37°53' E 023°43'0 0.0
2018-Jun-17 10:59N 37°53' E 023°43'0 0.0
2018-Jun-17 10:29N 37°53' E 023°43'0 0.0
2018-Jun-17 09:59N 37°53' E 023°43'0 0.0
2018-Jun-17 09:29N 37°53' E 023°43'0 0.0
2018-Jun-17 08:59N 37°53' E 023°43'0 0.0
2018-Jun-17 08:29N 37°53' E 023°43'0 0.0
2018-Jun-17 07:59N 37°53' E 023°43'0 0.0
2018-Jun-17 07:29N 37°53' E 023°43'0 0.0
2018-Jun-17 06:59N 37°53' E 023°43'0 0.0
2018-Jun-17 06:29N 37°53' E 023°43'0 0.0
2018-Jun-17 05:56N 37°53' E 023°43'0 0.0
2018-Jun-17 05:29N 37°53' E 023°43'0 0.0
2018-Jun-17 04:59N 37°53' E 023°43'0 0.0
2018-Jun-17 04:29N 37°53' E 023°43'0 0.0
2018-Jun-17 03:59N 37°53' E 023°43'0 0.0
2018-Jun-17 03:29N 37°53' E 023°43'0 0.0
2018-Jun-17 02:59N 37°53' E 023°43'0 0.0
2018-Jun-17 02:29N 37°53' E 023°43'0 0.0
2018-Jun-17 01:59N 37°53' E 023°43'0 0.0
2018-Jun-17 01:29N 37°53' E 023°43'0 0.0
2018-Jun-17 00:59N 37°53' E 023°43'0 0.0
2018-Jun-17 00:29N 37°53' E 023°43'0 0.0
2018-Jun-16 23:59N 37°53' E 023°43'0 0.0
2018-Jun-16 23:29N 37°53' E 023°43'0 0.0
2018-Jun-16 22:59N 37°53' E 023°43'0 0.0
2018-Jun-16 22:29N 37°53' E 023°43'0 0.0
2018-Jun-16 21:59N 37°53' E 023°43'0 0.0
2018-Jun-16 21:29N 37°53' E 023°43'0 0.0
2018-Jun-16 20:59N 37°53' E 023°43'0 0.0
2018-Jun-16 20:29N 37°53' E 023°43'0 0.0
2018-Jun-16 19:59N 37°53' E 023°43'0 0.0
2018-Jun-16 19:29N 37°53' E 023°43'0 0.0
2018-Jun-16 18:59N 37°53' E 023°43'0 0.0
2018-Jun-16 18:29N 37°53' E 023°43'0 0.0
2018-Jun-16 17:59N 37°53' E 023°43'0 0.0
2018-Jun-16 17:29N 37°53' E 023°43'0 0.0
2018-Jun-16 16:59N 37°53' E 023°43'0 0.0
2018-Jun-16 16:29N 37°53' E 023°43'0 0.0
2018-Jun-16 15:59N 37°53' E 023°43'0 0.0
2018-Jun-16 15:29N 37°53' E 023°43'0 0.0
2018-Jun-16 14:59N 37°53' E 023°43'0 0.0
2018-Jun-16 14:29N 37°53' E 023°43'0 0.0
2018-Jun-16 13:59N 37°53' E 023°43'0 0.0
2018-Jun-16 13:29N 37°53' E 023°43'0 0.0
2018-Jun-16 12:59N 37°53' E 023°43'0 0.0
2018-Jun-16 12:29N 37°53' E 023°43'0 0.0
2018-Jun-16 11:59N 37°53' E 023°43'0 0.0
2018-Jun-16 11:29N 37°53' E 023°43'0 0.0
2018-Jun-16 10:59N 37°53' E 023°43'0 0.0
2018-Jun-16 10:29N 37°53' E 023°43'0 0.0
2018-Jun-16 09:59N 37°53' E 023°43'2 3.3
2018-Jun-16 09:30N 37°51' E 023°42'714.7
2018-Jun-16 09:00N 37°46' E 023°35'3 5.1
2018-Jun-16 08:26N 37°44' E 023°33'0 0.0
2018-Jun-16 07:52N 37°44' E 023°33'0 0.0
2018-Jun-16 07:16N 37°44' E 023°33'0 0.0
2018-Jun-16 06:58N 37°44' E 023°33'4 8.3
2018-Jun-16 06:29N 37°40' E 023°32'11 0.5
2018-Jun-15 07:33N 37°31' E 023°25'111.7
2018-Jun-15 07:28N 37°30' E 023°26'510.6
2018-Jun-15 07:00N 37°28' E 023°31'  
Track history (hours):
 
Tides and Currents Weather Stations Pressure Air Temp Water Temp Dewpoint Dewpoint Depression Visibility Wind Speed Wind Dir Waves Ship Positions

Geosand

Last reported at 2018-Jun-24 13:00 UTC. Time now 2018-Jun-24 12:57 UTC.
Position N 37°25' E 025°20'.

Length 42 m; draft 2.5 m.

Type: Pleasure craft. MMSI: 249572000.

Date/timePositionNaut miles runAvg speedWind from/ knotsBaromVisibWave heightAir tempDewpointWater temp
2018-Jun-24 13:00N 37°25' E 025°20'0 0.0
2018-Jun-24 12:30N 37°25' E 025°20'0 0.0
2018-Jun-24 12:01N 37°25' E 025°20'0 0.2
2018-Jun-24 11:30N 37°25' E 025°20'0 0.1
2018-Jun-24 11:00N 37°25' E 025°20'0 0.0
2018-Jun-24 10:31N 37°25' E 025°20'0 0.0
2018-Jun-24 10:01N 37°25' E 025°20'0 0.0
2018-Jun-24 09:31N 37°25' E 025°20'0 0.0
2018-Jun-24 09:01N 37°25' E 025°20'0 0.0
2018-Jun-24 08:30N 37°25' E 025°20'0 0.0
2018-Jun-24 08:00N 37°25' E 025°20'0 0.1
2018-Jun-24 07:30N 37°25' E 025°20'0 0.0
2018-Jun-24 07:01N 37°25' E 025°20'0 0.0
2018-Jun-24 06:31N 37°25' E 025°20'0 0.2
2018-Jun-24 06:00N 37°24' E 025°20'0 0.0
2018-Jun-24 05:31N 37°24' E 025°20'0 0.0
2018-Jun-24 05:00N 37°24' E 025°20'0 0.0
2018-Jun-24 04:30N 37°24' E 025°20'0 0.0
2018-Jun-24 04:00N 37°24' E 025°20'0 0.0
2018-Jun-24 03:30N 37°24' E 025°20'0 0.0
2018-Jun-24 03:00N 37°24' E 025°20'0 0.0
2018-Jun-24 02:30N 37°24' E 025°20'0 0.0
2018-Jun-24 02:01N 37°24' E 025°20'0 0.1
2018-Jun-24 01:31N 37°24' E 025°20'0 0.0
2018-Jun-24 01:01N 37°24' E 025°20'0 0.0
2018-Jun-24 00:30N 37°24' E 025°20'0 0.0
2018-Jun-24 00:01N 37°24' E 025°20'0 0.0
2018-Jun-23 23:31N 37°24' E 025°20'0 0.0
2018-Jun-23 23:00N 37°24' E 025°20'0 0.0
2018-Jun-23 22:30N 37°24' E 025°20'0 0.0
2018-Jun-23 22:01N 37°24' E 025°20'0 0.0
2018-Jun-23 21:31N 37°24' E 025°20'0 0.0
2018-Jun-23 21:00N 37°24' E 025°20'0 0.0
2018-Jun-23 20:30N 37°24' E 025°20'0 0.0
2018-Jun-23 20:00N 37°24' E 025°20'0 0.1
2018-Jun-23 19:30N 37°24' E 025°20'0 0.0
2018-Jun-23 19:01N 37°24' E 025°20'0 0.0
2018-Jun-23 18:30N 37°24' E 025°20'0 0.0
2018-Jun-23 18:01N 37°24' E 025°20'0 0.0
2018-Jun-23 17:30N 37°24' E 025°20'0 0.0
2018-Jun-23 17:00N 37°24' E 025°20'0 0.0
2018-Jun-23 16:30N 37°24' E 025°20'0 0.0
2018-Jun-23 16:01N 37°24' E 025°20'0 0.0
2018-Jun-23 15:30N 37°24' E 025°20'0 0.0
2018-Jun-23 15:00N 37°24' E 025°20'0 0.0
2018-Jun-23 14:31N 37°24' E 025°20'0 0.0
2018-Jun-23 14:01N 37°24' E 025°20'0 0.0
2018-Jun-23 13:30N 37°24' E 025°20'0 0.0
2018-Jun-23 13:00N 37°24' E 025°20'0 0.0
2018-Jun-23 12:31N 37°24' E 025°20'0 0.0
2018-Jun-23 12:00N 37°24' E 025°20'0 0.1
2018-Jun-23 11:30N 37°25' E 025°20'0 0.0
2018-Jun-23 11:00N 37°25' E 025°20'0 0.1
2018-Jun-23 10:30N 37°25' E 025°20'0 0.0
2018-Jun-23 10:00N 37°25' E 025°20'0 0.0
2018-Jun-23 09:30N 37°25' E 025°20'0 0.0
2018-Jun-23 09:00N 37°25' E 025°20'0 0.0
2018-Jun-23 08:31N 37°25' E 025°20'0 0.0
2018-Jun-23 08:00N 37°25' E 025°20'0 0.0
2018-Jun-23 07:30N 37°25' E 025°20'2 3.4
2018-Jun-23 07:01N 37°24' E 025°18'3 6.5
2018-Jun-23 06:30N 37°27' E 025°20'0 0.1
2018-Jun-23 06:00N 37°27' E 025°20'0 0.0
2018-Jun-23 05:31N 37°27' E 025°20'0 0.0
2018-Jun-23 01:47N 37°27' E 025°20'0 0.0
2018-Jun-22 21:30N 37°27' E 025°20'0 0.0
2018-Jun-22 20:58N 37°27' E 025°20'0 0.0
2018-Jun-22 20:31N 37°27' E 025°20'0 0.0
2018-Jun-22 20:00N 37°27' E 025°20'0 0.0
2018-Jun-22 19:30N 37°27' E 025°20'0 0.0
2018-Jun-22 18:54N 37°27' E 025°20'0 0.0
2018-Jun-22 18:27N 37°27' E 025°20'0 0.0
2018-Jun-22 17:56N 37°27' E 025°20'0 0.0
2018-Jun-22 16:57N 37°27' E 025°20'0 0.0
2018-Jun-22 16:30N 37°27' E 025°20'0 0.0
2018-Jun-22 15:59N 37°27' E 025°20'0 1.0
2018-Jun-22 15:30N 37°27' E 025°19'0 0.0
2018-Jun-22 15:00N 37°27' E 025°19'4 6.8
2018-Jun-22 14:24N 37°30' E 025°22'2 5.4
2018-Jun-22 13:59N 37°28' E 025°23'0 0.0
2018-Jun-22 13:29N 37°28' E 025°23'0 0.0
2018-Jun-22 12:59N 37°28' E 025°23'0 0.0
2018-Jun-22 12:29N 37°28' E 025°23'0 0.0
2018-Jun-22 12:00N 37°28' E 025°23'0 0.0
2018-Jun-22 11:28N 37°28' E 025°23'0 0.0
2018-Jun-22 10:56N 37°28' E 025°23'0 0.0
2018-Jun-22 10:29N 37°28' E 025°23'0 0.0
2018-Jun-22 09:03N 37°28' E 025°23'0 0.1
2018-Jun-22 08:57N 37°28' E 025°23'0 0.0
2018-Jun-22 08:30N 37°28' E 025°23'0 0.0
2018-Jun-22 05:57N 37°28' E 025°23'3 7.0
2018-Jun-22 05:29N 37°30' E 025°19'3 6.7
2018-Jun-22 05:00N 37°27' E 025°20'0 0.0
2018-Jun-22 04:30N 37°27' E 025°20'0 0.0
2018-Jun-22 03:59N 37°27' E 025°20'0 0.0
2018-Jun-22 03:30N 37°27' E 025°20'0 0.0
2018-Jun-22 03:00N 37°27' E 025°20'0 0.0
2018-Jun-22 02:30N 37°27' E 025°20'0 0.0
2018-Jun-22 02:00N 37°27' E 025°20'0 0.0
2018-Jun-22 01:30N 37°27' E 025°20'0 0.0
2018-Jun-22 01:00N 37°27' E 025°20'0 0.0
2018-Jun-22 00:30N 37°27' E 025°20'0 0.0
2018-Jun-22 00:00N 37°27' E 025°20'0 0.0
2018-Jun-21 23:30N 37°27' E 025°20'0 0.0
2018-Jun-21 23:00N 37°27' E 025°20'0 0.0
2018-Jun-21 22:30N 37°27' E 025°20'0 0.0
2018-Jun-21 22:00N 37°27' E 025°20'0 0.0
2018-Jun-21 21:29N 37°27' E 025°20'0 0.0
2018-Jun-21 21:00N 37°27' E 025°20'0 0.0
2018-Jun-21 20:30N 37°27' E 025°20'0 0.0
2018-Jun-21 20:00N 37°27' E 025°20'0 0.0
2018-Jun-21 19:30N 37°27' E 025°20'0 0.0
2018-Jun-21 19:00N 37°27' E 025°20'0 0.0
2018-Jun-21 18:29N 37°27' E 025°20'0 0.0
2018-Jun-21 17:59N 37°27' E 025°20'0 0.0
2018-Jun-21 17:30N 37°27' E 025°20'0 0.0
2018-Jun-21 16:57N 37°27' E 025°20'1 2.6
2018-Jun-21 16:31N 37°27' E 025°18'3 6.0
2018-Jun-21 16:00N 37°25' E 025°20'0 0.0
2018-Jun-21 15:30N 37°25' E 025°20'0 0.0
2018-Jun-21 15:00N 37°25' E 025°20'0 0.0
2018-Jun-21 14:30N 37°25' E 025°20'0 0.0
2018-Jun-21 14:00N 37°25' E 025°20'0 0.0
2018-Jun-21 13:30N 37°25' E 025°20'0 0.0
2018-Jun-21 13:00N 37°25' E 025°20'0 0.0
2018-Jun-21 12:30N 37°25' E 025°20'0 0.0
2018-Jun-21 12:00N 37°25' E 025°20'0 0.1
2018-Jun-21 11:30N 37°25' E 025°20'0 0.0
2018-Jun-21 11:00N 37°25' E 025°20'0 0.0
2018-Jun-21 10:30N 37°25' E 025°20'0 0.0
2018-Jun-21 10:00N 37°25' E 025°20'0 0.0
2018-Jun-21 09:29N 37°25' E 025°20'0 0.1
2018-Jun-21 09:00N 37°25' E 025°20'0 0.0
2018-Jun-21 08:30N 37°25' E 025°20'0 0.0
2018-Jun-21 08:00N 37°25' E 025°20'0 0.0
2018-Jun-21 07:30N 37°25' E 025°20'0 0.0
2018-Jun-21 06:59N 37°25' E 025°20'0 0.0
2018-Jun-21 06:30N 37°25' E 025°20'0 0.0
2018-Jun-21 06:00N 37°25' E 025°20'0 0.0
2018-Jun-21 05:30N 37°25' E 025°20'0 0.0
2018-Jun-21 05:00N 37°25' E 025°20'0 0.0
2018-Jun-21 04:30N 37°25' E 025°20'0 0.0
2018-Jun-21 04:00N 37°25' E 025°20'0 0.0
2018-Jun-21 03:30N 37°25' E 025°20'0 0.0
2018-Jun-21 03:00N 37°25' E 025°20'0 0.0
2018-Jun-21 02:30N 37°25' E 025°20'0 0.0
2018-Jun-21 02:00N 37°25' E 025°20'0 0.0
2018-Jun-21 01:30N 37°25' E 025°20'0 0.0
2018-Jun-21 01:00N 37°25' E 025°20'0 0.0
2018-Jun-21 00:30N 37°25' E 025°20'0 0.0
2018-Jun-21 00:00N 37°25' E 025°20'0 0.0
2018-Jun-20 23:29N 37°25' E 025°20'0 0.0
2018-Jun-20 23:00N 37°25' E 025°20'0 0.0
2018-Jun-20 22:30N 37°25' E 025°20'0 0.0
2018-Jun-20 22:00N 37°25' E 025°20'0 0.0
2018-Jun-20 21:30N 37°25' E 025°20'0 0.0
2018-Jun-20 21:00N 37°25' E 025°20'0 0.0
2018-Jun-20 20:30N 37°25' E 025°20'0 0.0
2018-Jun-20 20:00N 37°25' E 025°20'0 0.0
2018-Jun-20 19:30N 37°25' E 025°20'0 0.0
2018-Jun-20 19:00N 37°25' E 025°20'0 0.0
2018-Jun-20 18:30N 37°25' E 025°20'0 0.0
2018-Jun-20 18:01N 37°25' E 025°20'0 0.0
2018-Jun-20 17:30N 37°25' E 025°20'0 0.0
2018-Jun-20 17:00N 37°25' E 025°20'0 0.0
2018-Jun-20 16:30N 37°25' E 025°20'0 0.0
2018-Jun-20 16:00N 37°25' E 025°20'0 0.0
2018-Jun-20 15:30N 37°25' E 025°20'0 0.1
2018-Jun-20 15:00N 37°25' E 025°20'0 0.0
2018-Jun-20 14:30N 37°25' E 025°20'0 0.0
2018-Jun-20 14:00N 37°25' E 025°20'0 0.0
2018-Jun-20 13:30N 37°25' E 025°20'0 0.0
2018-Jun-20 13:00N 37°25' E 025°20'0 0.0
2018-Jun-20 12:30N 37°25' E 025°20'0 0.0
2018-Jun-20 12:00N 37°25' E 025°20'0 0.0
2018-Jun-20 11:30N 37°25' E 025°20'0 0.0
2018-Jun-20 11:00N 37°25' E 025°20'0 0.0
2018-Jun-20 10:30N 37°25' E 025°20'0 0.0
2018-Jun-20 10:00N 37°25' E 025°20'0 0.0
2018-Jun-20 09:30N 37°25' E 025°20'0 0.0
2018-Jun-20 09:01N 37°25' E 025°20'0 0.0
2018-Jun-20 08:30N 37°25' E 025°20'0 0.0
2018-Jun-20 08:00N 37°25' E 025°20'0 0.0
2018-Jun-20 07:30N 37°25' E 025°20'0 0.0
2018-Jun-20 07:00N 37°25' E 025°20'0 0.0
2018-Jun-20 06:30N 37°25' E 025°20'0 0.0
2018-Jun-20 06:00N 37°25' E 025°20'0 0.0
2018-Jun-20 05:30N 37°25' E 025°20'0 0.0
2018-Jun-20 05:00N 37°25' E 025°20'0 0.1
2018-Jun-20 04:30N 37°25' E 025°20'612.3
2018-Jun-20 04:00N 37°22' E 025°14'1115.0
2018-Jun-20 03:17N 37°24' E 025°00'3 0.3
2018-Jun-19 17:43N 37°26' E 024°57'314.0
2018-Jun-19 17:30N 37°23' E 024°58'5 8.9
2018-Jun-19 17:00N 37°24' E 024°53'0 0.1
2018-Jun-19 16:31N 37°24' E 024°53'0 0.0
2018-Jun-19 16:00N 37°24' E 024°53'0 0.0
2018-Jun-19 15:30N 37°24' E 024°53'0 0.0
2018-Jun-19 15:00N 37°24' E 024°53'4 8.5
2018-Jun-19 14:30N 37°23' E 024°48'5211.8
2018-Jun-19 10:03N 37°43' E 023°47'115.7
2018-Jun-19 09:59N 37°44' E 023°46'715.5
2018-Jun-19 09:30N 37°51' E 023°43'1 2.7
2018-Jun-19 08:59N 37°53' E 023°43'0 0.0
2018-Jun-19 08:29N 37°53' E 023°43'0 0.0
2018-Jun-19 07:59N 37°53' E 023°43'0 0.0
2018-Jun-19 07:29N 37°53' E 023°43'0 0.0
2018-Jun-19 06:59N 37°53' E 023°43'0 0.0
2018-Jun-19 06:26N 37°53' E 023°43'0 0.0
2018-Jun-19 05:59N 37°53' E 023°43'0 0.0
2018-Jun-19 05:29N 37°53' E 023°43'0 0.0
2018-Jun-19 04:59N 37°53' E 023°43'0 0.0
2018-Jun-19 04:29N 37°53' E 023°43'0 0.0
2018-Jun-19 03:59N 37°53' E 023°43'0 0.0
2018-Jun-19 03:29N 37°53' E 023°43'0 0.0
2018-Jun-19 02:59N 37°53' E 023°43'0 0.0
2018-Jun-19 02:29N 37°53' E 023°43'0 0.0
2018-Jun-19 01:59N 37°53' E 023°43'0 0.0
2018-Jun-19 01:29N 37°53' E 023°43'0 0.0
2018-Jun-19 00:59N 37°53' E 023°43'0 0.0
2018-Jun-19 00:29N 37°53' E 023°43'0 0.0
2018-Jun-18 23:59N 37°53' E 023°43'0 0.0
2018-Jun-18 23:29N 37°53' E 023°43'0 0.0
2018-Jun-18 22:59N 37°53' E 023°43'0 0.0
2018-Jun-18 22:29N 37°53' E 023°43'0 0.0
2018-Jun-18 21:59N 37°53' E 023°43'0 0.0
2018-Jun-18 21:29N 37°53' E 023°43'0 0.0
2018-Jun-18 20:59N 37°53' E 023°43'0 0.0
2018-Jun-18 20:29N 37°53' E 023°43'0 0.0
2018-Jun-18 19:59N 37°53' E 023°43'0 0.0
2018-Jun-18 19:29N 37°53' E 023°43'0 0.0
2018-Jun-18 18:59N 37°53' E 023°43'0 0.0
2018-Jun-18 18:29N 37°53' E 023°43'0 0.0
2018-Jun-18 17:59N 37°53' E 023°43'0 0.0
2018-Jun-18 17:29N 37°53' E 023°43'0 0.0
2018-Jun-18 16:59N 37°53' E 023°43'0 0.0
2018-Jun-18 16:29N 37°53' E 023°43'0 0.0
2018-Jun-18 15:59N 37°53' E 023°43'0 0.0
2018-Jun-18 15:29N 37°53' E 023°43'0 0.0
2018-Jun-18 14:59N 37°53' E 023°43'0 0.0
2018-Jun-18 14:29N 37°53' E 023°43'0 0.0
2018-Jun-18 13:59N 37°53' E 023°43'0 0.0
2018-Jun-18 13:29N 37°53' E 023°43'0 0.0
2018-Jun-18 12:59N 37°53' E 023°43'0 0.0
2018-Jun-18 12:29N 37°53' E 023°43'0 0.0
2018-Jun-18 11:59N 37°53' E 023°43'0 0.0
2018-Jun-18 11:29N 37°53' E 023°43'0 0.0
2018-Jun-18 10:59N 37°53' E 023°43'0 0.0
2018-Jun-18 10:29N 37°53' E 023°43'0 0.0
2018-Jun-18 09:59N 37°53' E 023°43'0 0.0
2018-Jun-18 09:29N 37°53' E 023°43'0 0.0
2018-Jun-18 08:59N 37°53' E 023°43'0 0.0
2018-Jun-18 08:29N 37°53' E 023°43'0 0.0
2018-Jun-18 07:56N 37°53' E 023°43'0 0.0
2018-Jun-18 07:29N 37°53' E 023°43'0 0.0
2018-Jun-18 06:59N 37°53' E 023°43'0 0.0
2018-Jun-18 06:29N 37°53' E 023°43'0 0.0
2018-Jun-18 05:59N 37°53' E 023°43'0 0.0
2018-Jun-18 05:29N 37°53' E 023°43'0 0.0
2018-Jun-18 04:59N 37°53' E 023°43'0 0.0
2018-Jun-18 04:29N 37°53' E 023°43'0 0.0
2018-Jun-18 03:59N 37°53' E 023°43'0 0.0
2018-Jun-18 03:29N 37°53' E 023°43'0 0.0
2018-Jun-18 02:59N 37°53' E 023°43'0 0.0
2018-Jun-18 02:29N 37°53' E 023°43'0 0.0
2018-Jun-18 01:59N 37°53' E 023°43'0 0.0
2018-Jun-18 01:29N 37°53' E 023°43'0 0.0
2018-Jun-18 00:59N 37°53' E 023°43'0 0.0
2018-Jun-18 00:29N 37°53' E 023°43'0 0.0
2018-Jun-17 23:59N 37°53' E 023°43'0 0.0
2018-Jun-17 23:29N 37°53' E 023°43'0 0.0
2018-Jun-17 22:59N 37°53' E 023°43'0 0.0
2018-Jun-17 22:29N 37°53' E 023°43'0 0.0
2018-Jun-17 21:59N 37°53' E 023°43'0 0.0
2018-Jun-17 21:29N 37°53' E 023°43'0 0.0
2018-Jun-17 20:59N 37°53' E 023°43'0 0.0
2018-Jun-17 20:29N 37°53' E 023°43'0 0.0
2018-Jun-17 19:59N 37°53' E 023°43'0 0.0
2018-Jun-17 19:29N 37°53' E 023°43'0 0.0
2018-Jun-17 18:59N 37°53' E 023°43'0 0.0
2018-Jun-17 18:29N 37°53' E 023°43'0 0.0
2018-Jun-17 17:59N 37°53' E 023°43'0 0.0
2018-Jun-17 17:29N 37°53' E 023°43'0 0.0
2018-Jun-17 16:59N 37°53' E 023°43'0 0.0
2018-Jun-17 16:29N 37°53' E 023°43'0 0.0
2018-Jun-17 15:59N 37°53' E 023°43'0 0.0
2018-Jun-17 15:29N 37°53' E 023°43'0 0.0
2018-Jun-17 14:59N 37°53' E 023°43'0 0.0
2018-Jun-17 14:29N 37°53' E 023°43'0 0.0
2018-Jun-17 13:59N 37°53' E 023°43'0 0.0
2018-Jun-17 13:29N 37°53' E 023°43'0 0.0
2018-Jun-17 12:59N 37°53' E 023°43'0 0.0
2018-Jun-17 12:29N 37°53' E 023°43'0 0.0
2018-Jun-17 11:59N 37°53' E 023°43'0 0.0
2018-Jun-17 11:29N 37°53' E 023°43'0 0.0
2018-Jun-17 10:59N 37°53' E 023°43'0 0.0
2018-Jun-17 10:29N 37°53' E 023°43'0 0.0
2018-Jun-17 09:59N 37°53' E 023°43'0 0.0
2018-Jun-17 09:29N 37°53' E 023°43'0 0.0
2018-Jun-17 08:59N 37°53' E 023°43'0 0.0
2018-Jun-17 08:29N 37°53' E 023°43'0 0.0
2018-Jun-17 07:59N 37°53' E 023°43'0 0.0
2018-Jun-17 07:29N 37°53' E 023°43'0 0.0
2018-Jun-17 06:59N 37°53' E 023°43'0 0.0
2018-Jun-17 06:29N 37°53' E 023°43'0 0.0
2018-Jun-17 05:56N 37°53' E 023°43'0 0.0
2018-Jun-17 05:29N 37°53' E 023°43'0 0.0
2018-Jun-17 04:59N 37°53' E 023°43'0 0.0
2018-Jun-17 04:29N 37°53' E 023°43'0 0.0
2018-Jun-17 03:59N 37°53' E 023°43'0 0.0
2018-Jun-17 03:29N 37°53' E 023°43'0 0.0
2018-Jun-17 02:59N 37°53' E 023°43'0 0.0
2018-Jun-17 02:29N 37°53' E 023°43'0 0.0
2018-Jun-17 01:59N 37°53' E 023°43'0 0.0
2018-Jun-17 01:29N 37°53' E 023°43'0 0.0
2018-Jun-17 00:59N 37°53' E 023°43'0 0.0
2018-Jun-17 00:29N 37°53' E 023°43'0 0.0
2018-Jun-16 23:59N 37°53' E 023°43'0 0.0
2018-Jun-16 23:29N 37°53' E 023°43'0 0.0
2018-Jun-16 22:59N 37°53' E 023°43'0 0.0
2018-Jun-16 22:29N 37°53' E 023°43'0 0.0
2018-Jun-16 21:59N 37°53' E 023°43'0 0.0
2018-Jun-16 21:29N 37°53' E 023°43'0 0.0
2018-Jun-16 20:59N 37°53' E 023°43'0 0.0
2018-Jun-16 20:29N 37°53' E 023°43'0 0.0
2018-Jun-16 19:59N 37°53' E 023°43'0 0.0
2018-Jun-16 19:29N 37°53' E 023°43'0 0.0
2018-Jun-16 18:59N 37°53' E 023°43'0 0.0
2018-Jun-16 18:29N 37°53' E 023°43'0 0.0
2018-Jun-16 17:59N 37°53' E 023°43'0 0.0
2018-Jun-16 17:29N 37°53' E 023°43'0 0.0
2018-Jun-16 16:59N 37°53' E 023°43'0 0.0
2018-Jun-16 16:29N 37°53' E 023°43'0 0.0
2018-Jun-16 15:59N 37°53' E 023°43'0 0.0
2018-Jun-16 15:29N 37°53' E 023°43'0 0.0
2018-Jun-16 14:59N 37°53' E 023°43'0 0.0
2018-Jun-16 14:29N 37°53' E 023°43'0 0.0
2018-Jun-16 13:59N 37°53' E 023°43'0 0.0
2018-Jun-16 13:29N 37°53' E 023°43'0 0.0
2018-Jun-16 12:59N 37°53' E 023°43'0 0.0
2018-Jun-16 12:29N 37°53' E 023°43'0 0.0
2018-Jun-16 11:59N 37°53' E 023°43'0 0.0
2018-Jun-16 11:29N 37°53' E 023°43'0 0.0
2018-Jun-16 10:59N 37°53' E 023°43'0 0.0
2018-Jun-16 10:29N 37°53' E 023°43'0 0.0
2018-Jun-16 09:59N 37°53' E 023°43'2 3.3
2018-Jun-16 09:30N 37°51' E 023°42'714.7
2018-Jun-16 09:00N 37°46' E 023°35'3 5.1
2018-Jun-16 08:26N 37°44' E 023°33'0 0.0
2018-Jun-16 07:52N 37°44' E 023°33'0 0.0
2018-Jun-16 07:16N 37°44' E 023°33'0 0.0
2018-Jun-16 06:58N 37°44' E 023°33'4 8.3
2018-Jun-16 06:29N 37°40' E 023°32'11 0.5
2018-Jun-15 07:33N 37°31' E 023°25'111.7
2018-Jun-15 07:28N 37°30' E 023°26'510.6
2018-Jun-15 07:00N 37°28' E 023°31'  

Dump ship's entire track history